Time;durP1;ratioP1;P1;durP2;ratioP2;P2;SDS_P1;SDS_P2;PMS_P1;PMS_P2;Temp;Humidity;BMP_temperature;BMP_pressure;BME280_temperature;BME280_humidity;BME280_pressure;Samples;Min_cycle;Max_cycle;Signal;HPM_P1;HPM_P2
2021/05/19 00:02:16;;;;;;;2.00;1.40;;;;;;;22.31;28.63;100465.66;4412466;32;20042;-77
2021/05/19 00:04:41;;;;;;;4.68;1.70;;;;;;;22.11;29.75;100469.62;4414563;32;20056;-77
2021/05/19 00:07:07;;;;;;;1.65;1.05;;;;;;;22.15;30.50;100464.37;4411606;32;20087;-79
2021/05/19 00:09:32;;;;;;;3.17;1.00;;;;;;;22.03;30.76;100462.09;4413601;32;20383;-79
2021/05/19 00:11:59;;;;;;;3.65;1.58;;;;;;;21.90;31.00;100471.22;4412179;32;20069;-78
2021/05/19 00:14:25;;;;;;;2.78;1.35;;;;;;;22.06;31.08;100472.50;4409704;32;20076;-77
2021/05/19 00:16:50;;;;;;;6.90;1.40;;;;;;;21.91;31.33;100484.25;4413254;32;20466;-77
2021/05/19 00:19:18;;;;;;;6.93;1.50;;;;;;;21.85;31.48;100474.09;4410559;32;20076;-79
2021/05/19 00:21:45;;;;;;;4.95;1.60;;;;;;;21.95;31.53;100481.91;4412762;32;20038;-77
2021/05/19 00:24:12;;;;;;;2.60;1.60;;;;;;;21.75;31.80;100481.41;4412268;32;20153;-77
2021/05/19 00:26:38;;;;;;;4.03;1.20;;;;;;;21.25;32.41;100476.44;4415335;32;20094;-79
2021/05/19 00:29:09;;;;;;;5.05;1.42;;;;;;;21.57;32.01;100474.87;4411067;32;20081;-77
2021/05/19 00:31:34;;;;;;;6.93;1.85;;;;;;;21.82;32.03;100480.87;4411823;32;20038;-79
2021/05/19 00:34:00;;;;;;;2.80;1.27;;;;;;;21.36;32.39;100482.13;4411703;32;20729;-77
2021/05/19 00:36:26;;;;;;;3.30;1.48;;;;;;;21.32;32.68;100483.69;4413664;32;20065;-77
2021/05/19 00:38:54;;;;;;;4.43;1.30;;;;;;;21.37;32.95;100478.00;4414881;32;20113;-79
2021/05/19 00:41:20;;;;;;;4.05;1.40;;;;;;;21.49;32.64;100482.44;4414943;32;20406;-77
2021/05/19 00:43:46;;;;;;;5.10;1.30;;;;;;;21.54;32.77;100483.75;4413044;32;20033;-79
2021/05/19 00:46:12;;;;;;;7.32;2.05;;;;;;;21.36;32.81;100490.72;4410557;32;20018;-79
2021/05/19 00:48:38;;;;;;;4.28;1.65;;;;;;;21.23;32.53;100478.25;4412804;32;20158;-79
2021/05/19 00:51:05;;;;;;;5.78;1.50;;;;;;;21.56;32.17;100481.13;4413525;32;20102;-79
2021/05/19 00:53:32;;;;;;;4.93;1.25;;;;;;;21.52;32.05;100483.47;4414149;32;20140;-79
2021/05/19 00:55:57;;;;;;;4.07;0.90;;;;;;;21.61;31.70;100486.88;4412162;32;20083;-79
2021/05/19 00:58:23;;;;;;;3.80;1.10;;;;;;;21.40;31.47;100479.03;4411706;32;20074;-79
2021/05/19 01:00:49;;;;;;;3.15;1.12;;;;;;;21.56;31.25;100479.03;4411887;32;20030;-79
2021/05/19 01:03:15;;;;;;;3.95;1.17;;;;;;;21.38;31.21;100482.41;4410716;32;20100;-79
2021/05/19 01:05:46;;;;;;;6.28;1.42;;;;;;;21.28;31.38;100481.13;4413245;32;20404;-79
2021/05/19 01:11:07;;;;;;;2.87;1.12;;;;;;;21.13;31.32;100476.91;4412821;32;20052;-79
2021/05/19 01:13:34;;;;;;;4.20;1.20;;;;;;;21.64;30.80;100479.31;4410036;32;20038;-79
2021/05/19 01:16:00;;;;;;;3.45;1.27;;;;;;;21.62;30.88;100479.03;4411000;32;20545;-77
2021/05/19 01:18:27;;;;;;;2.78;1.27;;;;;;;21.42;31.28;100473.56;4408780;32;20460;-77
2021/05/19 01:20:56;;;;;;;3.53;1.87;;;;;;;21.52;31.26;100474.87;4410809;32;20060;-77
2021/05/19 01:23:22;;;;;;;4.35;1.42;;;;;;;21.65;31.44;100480.84;4411245;32;20434;-77
2021/05/19 01:25:48;;;;;;;6.87;1.75;;;;;;;21.34;31.73;100472.53;4411267;32;20102;-77
2021/05/19 01:28:14;;;;;;;2.60;1.17;;;;;;;21.37;31.47;100474.34;4412129;32;20419;-77
2021/05/19 01:30:41;;;;;;;13.55;1.52;;;;;;;21.18;31.93;100467.56;4409471;32;20391;-77
2021/05/19 01:33:06;;;;;;;1.83;0.80;;;;;;;21.21;31.65;100470.19;4412796;32;20132;-77
2021/05/19 01:35:32;;;;;;;3.17;0.93;;;;;;;21.19;31.08;100472.78;4410856;32;20496;-77
2021/05/19 01:37:58;;;;;;;3.20;0.70;;;;;;;21.39;31.19;100463.94;4411802;32;20061;-77
2021/05/19 01:40:24;;;;;;;4.00;0.73;;;;;;;21.33;31.28;100470.97;4409607;32;20335;-77
2021/05/19 01:42:51;;;;;;;5.90;1.02;;;;;;;21.17;31.26;100472.50;4410529;32;20418;-77
2021/05/19 01:45:23;;;;;;;3.55;1.10;;;;;;;21.52;31.08;100466.28;4410836;32;20405;-77
2021/05/19 01:47:53;;;;;;;3.37;1.15;;;;;;;21.69;31.25;100472.78;4411617;32;20441;-77
2021/05/19 01:50:22;;;;;;;2.22;1.23;;;;;;;21.74;31.57;100472.03;4410211;32;20370;-77
2021/05/19 01:52:52;;;;;;;2.87;1.23;;;;;;;21.76;31.53;100471.50;4409460;32;20438;-77
2021/05/19 01:55:18;;;;;;;3.62;0.90;;;;;;;21.62;31.51;100461.84;4407768;32;20509;-77
2021/05/19 01:57:45;;;;;;;5.03;1.20;;;;;;;21.53;31.49;100467.84;4411572;32;20484;-77
2021/05/19 02:00:13;;;;;;;1.90;0.70;;;;;;;21.58;31.68;100469.94;4413059;32;20108;-77
2021/05/19 02:02:40;;;;;;;3.03;0.90;;;;;;;21.72;31.16;100466.00;4409691;32;20060;-77
2021/05/19 02:05:10;;;;;;;3.60;1.15;;;;;;;21.77;31.34;100470.19;4408590;32;20113;-77
2021/05/19 02:07:36;;;;;;;4.85;1.20;;;;;;;21.86;31.22;100467.06;4411188;32;20355;-77
2021/05/19 02:10:07;;;;;;;6.90;0.90;;;;;;;21.61;31.52;100474.63;4412683;32;20096;-77
2021/05/19 02:12:33;;;;;;;1.80;0.80;;;;;;;21.64;31.43;100467.84;4410021;32;20076;-78
2021/05/19 02:14:59;;;;;;;7.62;1.00;;;;;;;21.48;31.54;100471.50;4409405;32;20070;-76
2021/05/19 02:17:28;;;;;;;4.07;1.10;;;;;;;21.50;31.51;100472.53;4409859;32;20431;-77
2021/05/19 02:19:54;;;;;;;3.15;0.98;;;;;;;21.87;31.04;100468.63;4410173;32;20486;-77
2021/05/19 02:22:21;;;;;;;2.15;0.60;;;;;;;21.43;31.69;100472.28;4413381;32;20033;-77
2021/05/19 02:24:47;;;;;;;4.85;1.27;;;;;;;21.50;31.67;100469.66;4411658;32;20033;-77
2021/05/19 02:27:12;;;;;;;2.58;1.10;;;;;;;21.44;31.90;100468.09;4410517;32;20452;-77
2021/05/19 02:29:38;;;;;;;3.20;1.00;;;;;;;21.42;32.07;100473.56;4413065;32;20523;-77
2021/05/19 02:32:04;;;;;;;6.12;1.17;;;;;;;21.38;32.23;100470.97;4410324;32;20418;-77
2021/05/19 02:34:30;;;;;;;4.97;1.25;;;;;;;21.41;32.13;100472.00;4408797;32;20457;-77
2021/05/19 02:36:56;;;;;;;4.03;0.98;;;;;;;21.30;32.29;100472.00;4409504;32;20105;-77
2021/05/19 02:39:22;;;;;;;2.92;1.10;;;;;;;21.31;32.33;100482.16;4410387;32;20066;-77
2021/05/19 02:41:47;;;;;;;2.25;0.90;;;;;;;21.12;32.72;100475.34;4409614;32;20154;-77
2021/05/19 02:44:13;;;;;;;4.12;0.80;;;;;;;21.11;32.73;100482.38;4412253;32;20492;-77
2021/05/19 02:46:39;;;;;;;1.35;0.70;;;;;;;21.12;32.82;100478.22;4407665;32;20026;-76
2021/05/19 02:49:05;;;;;;;4.45;0.98;;;;;;;21.08;32.84;100481.31;4409569;32;20049;-76
2021/05/19 02:51:33;;;;;;;1.65;0.80;;;;;;;21.23;32.95;100489.69;4412782;32;20033;-77
2021/05/19 02:53:59;;;;;;;1.80;0.75;;;;;;;21.21;33.03;100495.16;4407381;32;20565;-77
2021/05/19 02:56:25;;;;;;;4.20;1.10;;;;;;;21.00;33.16;100494.59;4410472;32;20352;-77
2021/05/19 02:58:52;;;;;;;5.37;0.90;;;;;;;21.10;33.05;100490.19;4410847;32;20129;-77
2021/05/19 03:01:19;;;;;;;2.22;0.93;;;;;;;21.08;33.02;100492.00;4413621;32;20034;-77
2021/05/19 03:03:45;;;;;;;3.67;1.12;;;;;;;21.00;33.37;100494.59;4413523;32;20029;-77
2021/05/19 03:06:11;;;;;;;4.70;1.52;;;;;;;20.67;34.14;100491.59;4410740;32;20474;-77
2021/05/19 03:08:37;;;;;;;3.92;2.12;;;;;;;21.16;33.36;100488.13;4413141;32;20155;-77
2021/05/19 03:11:03;;;;;;;3.25;1.50;;;;;;;20.87;33.87;100497.13;4416392;32;20138;-77
2021/05/19 03:13:30;;;;;;;3.20;1.48;;;;;;;20.97;33.89;100497.69;4412377;32;20138;-77
2021/05/19 03:15:56;;;;;;;5.60;2.35;;;;;;;20.81;34.07;100487.75;4413081;32;20029;-77
2021/05/19 03:18:22;;;;;;;4.00;1.50;;;;;;;20.73;34.16;100495.25;4413047;32;20520;-77
2021/05/19 03:20:47;;;;;;;5.90;1.60;;;;;;;20.72;34.08;100490.03;4414951;32;20469;-77
2021/05/19 03:23:13;;;;;;;5.82;1.90;;;;;;;20.63;34.33;100493.12;4414279;32;20101;-79
2021/05/19 03:25:40;;;;;;;3.60;1.77;;;;;;;20.46;34.69;100495.16;4415263;32;20423;-79
2021/05/19 03:28:06;;;;;;;2.95;1.70;;;;;;;20.55;34.63;100498.56;4411362;32;20092;-78
2021/05/19 03:30:32;;;;;;;4.25;1.87;;;;;;;20.63;34.49;100490.28;4413965;32;20026;-77
2021/05/19 03:32:59;;;;;;;6.72;2.30;;;;;;;20.61;34.53;100507.94;4415446;32;20045;-77
2021/05/19 03:35:25;;;;;;;6.97;1.98;;;;;;;20.64;34.49;100500.41;4413730;32;20367;-77
2021/05/19 03:37:52;;;;;;;4.22;1.90;;;;;;;20.74;34.58;100490.31;4413087;32;20053;-77
2021/05/19 03:40:18;;;;;;;8.02;2.00;;;;;;;20.77;34.55;100490.06;4410661;32;20094;-79
2021/05/19 03:42:44;;;;;;;6.00;2.55;;;;;;;20.59;34.61;100507.66;4412036;32;20038;-79
2021/05/19 03:45:14;;;;;;;3.85;1.40;;;;;;;20.82;34.38;100502.81;4408611;32;20078;-79
2021/05/19 03:47:41;;;;;;;3.95;1.62;;;;;;;20.99;34.21;100506.56;4410600;32;21492;-79
2021/05/19 03:50:09;;;;;;;4.10;1.77;;;;;;;20.80;34.32;100511.16;4414029;32;20123;-78
2021/05/19 03:52:36;;;;;;;6.00;1.42;;;;;;;20.88;34.35;100507.28;4414344;32;20098;-79
2021/05/19 03:55:04;;;;;;;6.15;1.12;;;;;;;20.80;34.30;100505.44;4412062;32;20041;-79
2021/05/19 03:57:29;;;;;;;2.40;1.27;;;;;;;21.03;33.97;100510.72;4412579;32;20455;-79
2021/05/19 03:59:55;;;;;;;8.95;1.80;;;;;;;20.83;34.04;100513.75;4412717;32;20457;-79
2021/05/19 04:02:20;;;;;;;5.12;2.00;;;;;;;20.76;34.05;100514.25;4410374;32;20111;-79
2021/05/19 04:04:46;;;;;;;6.68;1.83;;;;;;;20.67;34.29;100511.59;4412295;32;20062;-79
2021/05/19 04:07:12;;;;;;;7.10;1.65;;;;;;;20.84;33.97;100517.41;4412610;32;20073;-79
2021/05/19 04:09:38;;;;;;;7.80;1.40;;;;;;;20.93;33.79;100514.31;4412885;32;20083;-79
2021/05/19 04:12:04;;;;;;;5.87;1.35;;;;;;;20.98;33.65;100516.41;4411068;32;20022;-79
2021/05/19 04:14:29;;;;;;;3.58;0.82;;;;;;;21.08;33.30;100515.66;4411637;32;20046;-79
2021/05/19 04:16:55;;;;;;;6.97;1.23;;;;;;;21.14;32.88;100513.59;4411420;32;20105;-79
2021/05/19 04:19:21;;;;;;;5.15;1.45;;;;;;;21.18;33.13;100519.88;4412360;32;20080;-79
2021/05/19 04:21:47;;;;;;;5.45;1.50;;;;;;;21.09;33.30;100519.31;4414625;32;20351;-77
2021/05/19 04:24:13;;;;;;;2.72;1.35;;;;;;;21.13;33.23;100523.50;4411810;32;20019;-77
2021/05/19 04:26:39;;;;;;;3.67;1.83;;;;;;;21.19;33.17;100527.16;4412451;32;20030;-77
2021/05/19 04:29:04;;;;;;;4.28;1.85;;;;;;;21.23;32.97;100521.94;4411553;32;20084;-77
2021/05/19 04:31:31;;;;;;;3.50;1.08;;;;;;;21.32;32.85;100518.84;4411405;32;20145;-77
2021/05/19 04:33:57;;;;;;;6.62;1.95;;;;;;;21.43;32.70;100520.94;4410462;32;20030;-77
2021/05/19 04:36:23;;;;;;;7.43;1.90;;;;;;;21.41;32.74;100526.38;4410736;32;20125;-77
2021/05/19 04:38:49;;;;;;;5.22;1.50;;;;;;;21.49;32.54;100531.09;4411449;32;20018;-77
2021/05/19 04:41:15;;;;;;;8.98;1.58;;;;;;;21.40;32.68;100528.50;4412499;32;20907;-77
2021/05/19 04:43:42;;;;;;;5.07;1.20;;;;;;;21.34;32.66;100527.69;4411426;32;20104;-77
2021/05/19 04:46:08;;;;;;;5.50;1.58;;;;;;;21.30;32.84;100537.84;4409538;32;20458;-77
2021/05/19 04:48:33;;;;;;;4.80;1.08;;;;;;;21.26;32.78;100534.47;4410555;32;20149;-77
2021/05/19 04:50:59;;;;;;;9.60;1.00;;;;;;;21.21;32.83;100533.16;4412843;32;20093;-77
2021/05/19 04:53:25;;;;;;;1.62;0.90;;;;;;;21.18;32.93;100539.13;4412496;32;20064;-77
2021/05/19 04:55:52;;;;;;;5.70;0.88;;;;;;;21.07;32.79;100539.06;4409663;32;20074;-77
2021/05/19 04:58:18;;;;;;;5.37;1.08;;;;;;;21.19;32.68;100550.03;4414040;32;20072;-77
2021/05/19 05:00:44;;;;;;;2.92;0.90;;;;;;;21.37;32.41;100549.56;4412642;32;21451;-77
2021/05/19 05:03:11;;;;;;;6.70;0.88;;;;;;;21.47;32.20;100553.75;4410870;32;20069;-77
2021/05/19 05:05:37;;;;;;;4.47;1.12;;;;;;;21.60;32.21;100539.69;4412843;32;20066;-77
2021/05/19 05:08:04;;;;;;;3.62;1.02;;;;;;;21.75;32.11;100544.44;4413067;32;20026;-77
2021/05/19 05:10:30;;;;;;;5.12;0.90;;;;;;;21.87;32.14;100551.72;4411589;32;20021;-77
2021/05/19 05:12:55;;;;;;;3.53;1.10;;;;;;;22.08;31.62;100558.72;4410537;32;20115;-77
2021/05/19 05:15:22;;;;;;;4.75;1.40;;;;;;;22.13;31.44;100561.59;4408565;32;20038;-77
2021/05/19 05:17:47;;;;;;;5.30;1.40;;;;;;;22.32;31.10;100562.63;4408430;32;20030;-77
2021/05/19 05:20:14;;;;;;;3.80;0.77;;;;;;;22.41;31.05;100570.94;4411682;32;20017;-78
2021/05/19 05:22:40;;;;;;;5.40;1.12;;;;;;;22.57;31.00;100569.34;4411405;32;20034;-77
2021/05/19 05:25:07;;;;;;;4.25;0.70;;;;;;;22.43;31.13;100570.41;4411093;32;20401;-77
2021/05/19 05:27:33;;;;;;;3.50;0.80;;;;;;;22.74;30.91;100579.47;4406420;32;20084;-77
2021/05/19 05:29:59;;;;;;;3.03;0.90;;;;;;;22.44;31.03;100571.97;4411434;32;20073;-77
2021/05/19 05:32:24;;;;;;;1.67;0.85;;;;;;;22.52;30.84;100575.91;4410705;32;20460;-77
2021/05/19 05:34:50;;;;;;;7.93;1.00;;;;;;;22.75;30.72;100574.50;4411284;32;20444;-77
2021/05/19 05:37:16;;;;;;;1.98;0.62;;;;;;;22.65;30.77;100576.91;4409201;32;20082;-77
2021/05/19 05:39:42;;;;;;;2.28;0.80;;;;;;;22.89;30.58;100588.53;4409745;32;20195;-77
2021/05/19 05:42:08;;;;;;;2.90;0.90;;;;;;;22.79;30.47;100587.28;4410491;32;20030;-77
2021/05/19 05:44:34;;;;;;;4.85;1.75;;;;;;;22.93;30.27;100591.16;4414413;32;20460;-77
2021/05/19 05:47:00;;;;;;;3.42;1.00;;;;;;;22.98;30.15;100596.09;4411158;32;20543;-78
2021/05/19 05:49:25;;;;;;;5.30;0.90;;;;;;;23.29;29.69;100590.72;4409834;32;20060;-78
2021/05/19 05:51:51;;;;;;;2.53;0.60;;;;;;;23.31;29.59;100587.34;4412925;32;20083;-78
2021/05/19 05:54:18;;;;;;;8.73;1.30;;;;;;;23.40;29.64;100587.03;4411875;32;20130;-78
2021/05/19 05:56:44;;;;;;;5.50;0.93;;;;;;;23.44;29.77;100599.03;4409105;32;20065;-78
2021/05/19 05:59:09;;;;;;;3.53;0.95;;;;;;;23.50;29.54;100594.00;4409705;32;20048;-78
2021/05/19 06:01:36;;;;;;;6.68;1.50;;;;;;;23.62;29.52;100595.50;4408435;32;20555;-78
2021/05/19 06:04:02;;;;;;;4.25;0.90;;;;;;;23.78;29.14;100603.25;4411811;32;20430;-78
2021/05/19 06:06:28;;;;;;;4.78;0.70;;;;;;;23.69;29.20;100602.78;4410045;32;20093;-78
2021/05/19 06:08:54;;;;;;;5.18;1.05;;;;;;;23.50;29.18;100603.41;4410966;32;20025;-78
2021/05/19 06:11:20;;;;;;;4.35;0.57;;;;;;;23.67;29.13;100603.31;4411670;32;20434;-78
2021/05/19 06:13:46;;;;;;;1.48;0.50;;;;;;;23.83;28.70;100611.03;4411075;32;20174;-78
2021/05/19 06:16:12;;;;;;;4.18;0.50;;;;;;;23.41;28.91;100609.47;4412226;32;20061;-78
2021/05/19 06:18:37;;;;;;;4.28;0.60;;;;;;;23.74;28.58;100614.22;4410336;32;20073;-78
2021/05/19 06:21:03;;;;;;;2.30;0.70;;;;;;;23.48;28.75;100608.12;4410403;32;20071;-78
2021/05/19 06:23:29;;;;;;;1.92;0.47;;;;;;;23.84;28.47;100611.81;4411335;32;20082;-78
2021/05/19 06:25:56;;;;;;;1.70;0.60;;;;;;;23.78;28.62;100626.22;4405688;32;20037;-78
2021/05/19 06:28:21;;;;;;;2.78;1.00;;;;;;;23.95;28.58;100629.00;4407828;32;20177;-79
2021/05/19 06:30:47;;;;;;;2.28;0.43;;;;;;;23.95;28.84;100632.66;4407703;32;20074;-79
2021/05/19 06:33:13;;;;;;;2.42;0.40;;;;;;;23.58;29.15;100629.47;4406833;32;20122;-80
2021/05/19 06:35:39;;;;;;;2.30;0.50;;;;;;;23.90;28.85;100639.19;4407739;32;20489;-78
2021/05/19 06:38:04;;;;;;;4.57;0.47;;;;;;;23.91;29.02;100635.03;4405014;32;20104;-79
2021/05/19 06:40:32;;;;;;;2.97;0.73;;;;;;;24.10;28.82;100633.06;4407210;32;20551;-78
2021/05/19 06:42:58;;;;;;;1.83;0.57;;;;;;;24.28;29.19;100643.91;4408400;32;20081;-77
2021/05/19 06:45:28;;;;;;;1.45;0.45;;;;;;;24.03;29.72;100639.41;4405755;32;20086;-77
2021/05/19 06:47:54;;;;;;;3.70;0.62;;;;;;;24.09;29.66;100645.09;4404331;32;20167;-76
2021/05/19 06:50:20;;;;;;;2.72;0.68;;;;;;;24.27;29.32;100642.31;4405197;32;20637;-74
2021/05/19 06:52:47;;;;;;;0.98;0.70;;;;;;;24.10;30.14;100650.31;4407114;32;20096;-75
2021/05/19 06:55:16;;;;;;;4.62;1.30;;;;;;;23.97;30.32;100646.50;4409705;32;20038;-75
2021/05/19 06:57:42;;;;;;;2.55;1.10;;;;;;;24.22;29.96;100651.78;4411196;32;20038;-75
2021/05/19 07:00:09;;;;;;;3.37;1.33;;;;;;;24.38;29.90;100648.00;4405685;32;20085;-75
2021/05/19 07:02:37;;;;;;;4.75;0.90;;;;;;;24.21;30.49;100658.06;4404101;32;21362;-76
2021/05/19 07:05:06;;;;;;;3.12;0.93;;;;;;;24.13;30.53;100659.97;4400043;32;20754;-76
2021/05/19 07:07:32;;;;;;;3.70;0.93;;;;;;;24.65;30.12;100657.69;4402042;32;20038;-75
2021/05/19 07:09:58;;;;;;;3.65;1.10;;;;;;;24.06;30.73;100657.66;4400513;32;20115;-76
2021/05/19 07:12:23;;;;;;;3.53;1.08;;;;;;;24.26;30.42;100655.16;4401546;32;20058;-76
2021/05/19 07:14:54;;;;;;;2.17;1.05;;;;;;;24.20;30.47;100665.91;4401466;32;20041;-75
2021/05/19 07:17:19;;;;;;;2.22;0.75;;;;;;;24.40;30.01;100662.62;4403278;32;20033;-76
2021/05/19 07:19:45;;;;;;;1.87;0.77;;;;;;;24.75;29.57;100661.78;4406961;32;20122;-75
2021/05/19 07:22:11;;;;;;;2.50;0.85;;;;;;;24.61;29.53;100660.84;4403794;32;20780;-74
2021/05/19 07:24:37;;;;;;;3.28;0.80;;;;;;;24.90;29.10;100668.69;4399247;32;20042;-77
2021/05/19 07:27:03;;;;;;;2.65;0.80;;;;;;;24.94;28.53;100671.25;4402858;32;20615;-78
2021/05/19 07:29:28;;;;;;;1.42;0.80;;;;;;;25.02;28.03;100680.84;4400599;32;20237;-77
2021/05/19 07:31:54;;;;;;;2.95;1.10;;;;;;;24.98;28.17;100677.50;4405221;32;20087;-78
2021/05/19 07:34:20;;;;;;;3.40;1.00;;;;;;;24.82;28.77;100675.59;4404113;32;20146;-73
2021/05/19 07:36:46;;;;;;;4.45;1.20;;;;;;;25.22;28.43;100674.63;4405775;32;20061;-75
2021/05/19 07:39:13;;;;;;;3.95;0.98;;;;;;;25.49;27.90;100684.25;4402271;32;20078;-73
2021/05/19 07:41:39;;;;;;;1.95;0.60;;;;;;;25.64;27.32;100685.34;4405648;32;20081;-75
2021/05/19 07:44:06;;;;;;;3.03;0.80;;;;;;;25.22;27.01;100683.25;4403461;32;20080;-76
2021/05/19 07:46:33;;;;;;;5.20;0.85;;;;;;;24.96;27.40;100680.94;4404160;32;20037;-74
2021/05/19 07:48:59;;;;;;;5.00;0.70;;;;;;;25.62;26.66;100687.22;4406204;32;20157;-74
2021/05/19 07:51:25;;;;;;;3.60;0.80;;;;;;;25.83;26.53;100679.59;4406349;32;20137;-76
2021/05/19 07:53:53;;;;;;;3.17;0.90;;;;;;;25.87;25.88;100680.06;4401435;32;20437;-75
2021/05/19 07:59:07;;;;;;;2.70;0.70;;;;;;;26.49;25.12;100693.78;3967310;31;15151968;-75
2021/05/19 08:04:17;;;;;;;4.22;1.20;;;;;;;27.02;24.32;100698.34;3984031;32;15024367;-75
2021/05/19 08:06:43;;;;;;;1.50;0.60;;;;;;;27.02;24.32;100698.34;4440365;32;20084;-75
2021/05/19 08:09:10;;;;;;;2.47;0.73;;;;;;;26.66;24.70;100690.63;4442716;32;20105;-75
2021/05/19 08:11:38;;;;;;;2.20;0.80;;;;;;;26.73;25.33;100693.66;4439444;32;20076;-75
2021/05/19 08:14:04;;;;;;;3.12;1.90;;;;;;;27.35;24.64;100699.03;4439611;32;20128;-75
2021/05/19 08:16:30;;;;;;;3.05;0.60;;;;;;;27.57;24.17;100701.44;4438707;32;20147;-75
2021/05/19 08:18:56;;;;;;;1.98;0.60;;;;;;;27.39;25.45;100703.12;4440732;32;20104;-75
2021/05/19 08:21:22;;;;;;;3.30;0.70;;;;;;;26.96;25.76;100694.00;4440800;32;20045;-75
2021/05/19 08:23:47;;;;;;;3.72;0.60;;;;;;;26.96;25.27;100702.66;4440572;32;20064;-75
2021/05/19 08:26:13;;;;;;;2.22;0.50;;;;;;;26.94;25.49;100700.31;4438783;32;21402;-75
2021/05/19 08:28:38;;;;;;;1.52;0.68;;;;;;;27.34;24.07;100709.84;4440538;32;20114;-75
2021/05/19 08:31:04;;;;;;;4.18;0.85;;;;;;;27.39;24.83;100720.47;4440300;32;20379;-74
2021/05/19 08:33:31;;;;;;;2.70;1.45;;;;;;;27.99;24.16;100712.66;4442400;32;20128;-74
2021/05/19 08:35:57;;;;;;;4.10;0.62;;;;;;;28.69;23.33;100713.59;4440070;32;20072;-75
2021/05/19 08:38:24;;;;;;;2.00;0.60;;;;;;;28.69;23.06;100717.25;4435558;32;20497;-75
2021/05/19 08:40:49;;;;;;;4.35;0.80;;;;;;;28.90;21.84;100732.50;4443142;32;20033;-75
2021/05/19 08:43:15;;;;;;;3.70;0.90;;;;;;;29.24;23.04;100729.50;4440888;32;20086;-74
2021/05/19 08:45:41;;;;;;;2.83;1.10;;;;;;;29.06;23.45;100726.84;4436376;32;20148;-76
2021/05/19 08:48:08;;;;;;;4.18;0.90;;;;;;;28.82;23.73;100731.66;4437540;32;20069;-76
2021/05/19 08:50:36;;;;;;;1.48;0.88;;;;;;;29.01;23.82;100726.41;4442243;32;20103;-76
2021/05/19 08:53:07;;;;;;;2.17;0.82;;;;;;;28.47;24.25;100726.50;4439635;32;20122;-75
2021/05/19 08:55:32;;;;;;;7.93;1.55;;;;;;;28.67;24.04;100736.53;4436622;32;20435;-76
2021/05/19 08:57:58;;;;;;;4.65;1.25;;;;;;;28.00;24.68;100731.53;4437722;32;20081;-77
2021/05/19 09:00:24;;;;;;;2.08;1.10;;;;;;;28.29;24.05;100721.63;4439394;32;20072;-75
2021/05/19 09:05:43;;;;;;;2.70;1.17;;;;;;;28.73;24.26;100731.38;3981812;31;15013340;-76
2021/05/19 09:11:04;;;;;;;4.10;1.10;;;;;;;27.34;24.90;100735.06;3991725;31;15018209;-75
2021/05/19 09:13:35;;;;;;;3.15;0.90;;;;;;;27.34;24.90;100735.06;4456707;32;20210;-74
2021/05/19 09:16:04;;;;;;;2.72;0.98;;;;;;;27.45;24.84;100732.72;4439784;32;20476;-75
2021/05/19 09:21:39;;;;;;;2.97;0.90;;;;;;;30.04;20.97;100737.69;3974697;32;15153024;-74
2021/05/19 09:24:10;;;;;;;1.58;0.80;;;;;;;30.04;20.97;100737.69;4423697;32;20103;-75
2021/05/19 09:26:52;;;;;;;1.45;0.60;;;;;;;29.42;20.72;100739.28;4421379;32;20165;-76
2021/05/19 09:29:20;;;;;;;1.33;0.82;;;;;;;29.88;19.98;100746.91;4423985;32;20074;-76
2021/05/19 09:31:51;;;;;;;2.37;0.70;;;;;;;30.46;19.78;100756.41;4423646;32;20512;-76
2021/05/19 09:34:39;;;;;;;2.78;0.80;;;;;;;30.03;20.40;100755.69;4424905;32;20204;-75
2021/05/19 09:37:14;;;;;;;2.67;1.00;;;;;;;29.51;20.92;100747.47;4426309;32;20046;-78
2021/05/19 09:40:02;;;;;;;1.50;0.70;;;;;;;29.25;21.61;100754.25;4427276;32;20137;-74
2021/05/19 09:48:02;;;;;;;1.55;0.70;;;;;;;30.26;21.01;100760.25;3977808;32;15020910;-76
2021/05/19 10:01:05;;;;;;;4.10;0.90;;;;;;;32.04;18.58;100767.97;3991494;31;15021163;-76
2021/05/19 10:03:34;;;;;;;2.15;0.70;;;;;;;32.04;18.58;100767.97;4448639;32;20205;-75
2021/05/19 10:06:21;;;;;;;1.40;0.50;;;;;;;32.72;17.39;100766.81;4447594;32;20075;-74
2021/05/19 10:08:49;;;;;;;1.20;0.50;;;;;;;32.96;17.10;100771.94;4449676;32;20077;-74
2021/05/19 10:11:15;;;;;;;1.77;0.47;;;;;;;34.34;15.76;100770.09;4448248;32;20081;-74
2021/05/19 10:13:43;;;;;;;2.53;0.60;;;;;;;34.34;15.41;100772.22;4446237;32;20072;-74
2021/05/19 10:16:10;;;;;;;1.25;0.47;;;;;;;34.63;15.43;100776.13;4449566;32;20096;-76
2021/05/19 10:18:46;;;;;;;2.62;0.70;;;;;;;35.59;15.03;100775.09;4447505;32;20037;-76
2021/05/19 10:21:12;;;;;;;1.85;0.60;;;;;;;36.66;14.19;100778.19;4448682;32;20077;-76
2021/05/19 10:23:40;;;;;;;2.85;0.60;;;;;;;36.08;14.61;100782.56;4429533;32;20500;-77
2021/05/19 10:26:11;;;;;;;3.78;1.05;;;;;;;35.98;14.88;100778.84;4443883;32;20052;-76
2021/05/19 10:34:00;;;;;;;1.42;0.50;;;;;;;34.15;15.33;100775.78;3963519;32;15277333;-75
2021/05/19 10:44:26;;;;;;;2.58;1.00;;;;;;;31.70;18.35;100770.59;3994111;31;15016966;-75
2021/05/19 10:52:58;;;;;;;7.37;1.00;;;;;;;30.01;24.62;100801.91;3977302;31;15017189;-73
2021/05/19 10:58:02;;;;;;;3.87;1.25;;;;;;;26.38;31.95;100814.38;4430301;32;20088;-74
2021/05/19 11:00:29;;;;;;;3.30;1.20;;;;;;;17.30;53.05;100822.75;4428709;32;20240;-73
2021/05/19 11:05:35;;;;;;;6.25;2.20;;;;;;;13.99;70.21;100832.69;3998859;31;15015664;-75
2021/05/19 11:10:49;;;;;;;4.90;2.12;;;;;;;13.95;73.00;100834.88;3976641;32;15021151;-76
2021/05/19 11:13:18;;;;;;;5.68;2.58;;;;;;;13.95;73.00;100834.88;4427180;32;20049;-74
2021/05/19 11:21:04;;;;;;;2.60;1.35;;;;;;;13.95;69.70;100837.72;3957654;32;15030805;-74
2021/05/19 11:23:30;;;;;;;2.78;1.20;;;;;;;13.82;71.03;100842.62;4410281;32;20071;-77
2021/05/19 11:26:14;;;;;;;1.73;1.00;;;;;;;13.64;68.08;100853.78;4405608;32;20116;-75
2021/05/19 11:28:41;;;;;;;3.42;1.10;;;;;;;13.78;69.40;100844.00;4409475;32;20030;-76
2021/05/19 11:31:17;;;;;;;5.07;1.52;;;;;;;13.81;67.97;100848.75;4410665;32;20123;-75
2021/05/19 11:34:02;;;;;;;3.25;1.55;;;;;;;14.03;69.99;100850.34;4409107;32;20100;-74
2021/05/19 11:39:23;;;;;;;5.82;1.92;;;;;;;14.77;67.96;100852.41;3982660;31;15015630;-76
2021/05/19 11:41:51;;;;;;;7.72;2.70;;;;;;;15.22;70.22;100841.28;4442199;32;20053;-76
2021/05/19 11:44:39;;;;;;;5.20;2.42;;;;;;;15.46;73.03;100840.25;4442885;32;20057;-76
2021/05/19 11:47:06;;;;;;;2.90;1.08;;;;;;;16.06;70.49;100846.16;4442158;32;20171;-77
2021/05/19 11:49:32;;;;;;;1.65;0.75;;;;;;;16.31;63.05;100839.31;4442884;32;20037;-75
2021/05/19 11:51:58;;;;;;;5.90;0.90;;;;;;;16.59;62.54;100846.56;4437694;32;20335;-75
2021/05/19 11:54:24;;;;;;;1.58;0.75;;;;;;;16.72;60.19;100853.63;4442591;32;20619;-76
2021/05/19 11:56:52;;;;;;;1.95;0.82;;;;;;;17.43;58.47;100859.53;4440153;32;20106;-77
2021/05/19 11:59:22;;;;;;;4.22;0.85;;;;;;;17.64;55.23;100866.97;4440137;32;20088;-74
2021/05/19 12:01:53;;;;;;;5.80;1.40;;;;;;;17.78;52.87;100872.75;4442141;32;20188;-74
2021/05/19 12:04:20;;;;;;;3.70;0.70;;;;;;;17.86;54.25;100870.31;4440520;32;20324;-75
2021/05/19 12:06:48;;;;;;;2.53;0.90;;;;;;;17.86;51.56;100870.31;4443506;32;20154;-74
2021/05/19 12:09:15;;;;;;;2.83;1.12;;;;;;;17.84;52.91;100881.41;4442865;32;20057;-74
2021/05/19 12:11:41;;;;;;;2.47;1.20;;;;;;;17.71;51.38;100873.09;4444810;32;20297;-74
2021/05/19 12:14:10;;;;;;;2.50;0.90;;;;;;;17.75;52.71;100875.75;4441105;32;20084;-74
2021/05/19 12:16:41;;;;;;;2.55;0.95;;;;;;;17.64;50.48;100884.03;4442326;32;20076;-73
2021/05/19 12:21:46;;;;;;;2.92;0.70;;;;;;;18.14;48.83;100877.37;3969365;31;15707914;-74
2021/05/19 12:24:15;;;;;;;2.55;0.65;;;;;;;18.14;48.83;100877.37;4443576;32;20156;-74
2021/05/19 12:26:41;;;;;;;2.42;0.70;;;;;;;17.55;50.29;100876.34;4441021;32;20145;-75
2021/05/19 12:29:46;;;;;;;1.58;0.60;;;;;;;17.59;49.46;100882.69;4443374;32;20101;-73
2021/05/19 12:35:09;;;;;;;6.93;1.00;;;;;;;18.18;49.17;100872.25;3967339;32;15022507;-74
2021/05/19 12:40:21;;;;;;;1.67;0.70;;;;;;;18.64;49.97;100861.25;3977625;32;15021206;-76
2021/05/19 12:50:58;;;;;;;4.03;0.62;;;;;;;21.14;44.62;100864.84;3990690;31;15013350;-74